sensor_id;sensor_type;location;lat;lon;timestamp;P1;durP1;ratioP1;P2;durP2;ratioP2
29908;SDS011;36247;51.952;6.146;2024-01-07T00:01:49;80.65;;;33.90;;
29908;SDS011;36247;51.952;6.146;2024-01-07T00:04:15;78.82;;;34.78;;
29908;SDS011;36247;51.952;6.146;2024-01-07T00:06:42;90.80;;;37.90;;
29908;SDS011;36247;51.952;6.146;2024-01-07T00:09:07;90.93;;;37.22;;
29908;SDS011;36247;51.952;6.146;2024-01-07T00:11:33;89.63;;;35.65;;
29908;SDS011;36247;51.952;6.146;2024-01-07T00:13:58;87.72;;;37.25;;
29908;SDS011;36247;51.952;6.146;2024-01-07T00:16:24;90.90;;;37.50;;
29908;SDS011;36247;51.952;6.146;2024-01-07T00:18:49;84.07;;;37.03;;
29908;SDS011;36247;51.952;6.146;2024-01-07T00:21:15;89.97;;;37.72;;
29908;SDS011;36247;51.952;6.146;2024-01-07T00:23:40;87.03;;;39.05;;
29908;SDS011;36247;51.952;6.146;2024-01-07T00:26:06;78.43;;;34.10;;
29908;SDS011;36247;51.952;6.146;2024-01-07T00:28:33;77.57;;;35.80;;
29908;SDS011;36247;51.952;6.146;2024-01-07T00:30:58;79.03;;;33.92;;
29908;SDS011;36247;51.952;6.146;2024-01-07T00:33:25;80.07;;;35.35;;
29908;SDS011;36247;51.952;6.146;2024-01-07T00:35:51;76.72;;;33.25;;
29908;SDS011;36247;51.952;6.146;2024-01-07T00:38:16;80.03;;;35.45;;
29908;SDS011;36247;51.952;6.146;2024-01-07T00:40:42;76.15;;;31.75;;
29908;SDS011;36247;51.952;6.146;2024-01-07T00:43:08;77.78;;;34.38;;
29908;SDS011;36247;51.952;6.146;2024-01-07T00:45:33;80.22;;;34.97;;
29908;SDS011;36247;51.952;6.146;2024-01-07T00:48:00;69.82;;;33.47;;
29908;SDS011;36247;51.952;6.146;2024-01-07T00:50:25;63.33;;;30.00;;
29908;SDS011;36247;51.952;6.146;2024-01-07T00:52:51;71.78;;;32.83;;
29908;SDS011;36247;51.952;6.146;2024-01-07T00:55:16;69.68;;;33.20;;
29908;SDS011;36247;51.952;6.146;2024-01-07T00:57:42;67.30;;;31.80;;
29908;SDS011;36247;51.952;6.146;2024-01-07T01:00:07;76.75;;;33.38;;
29908;SDS011;36247;51.952;6.146;2024-01-07T01:02:33;77.82;;;34.90;;
29908;SDS011;36247;51.952;6.146;2024-01-07T01:05:01;78.10;;;34.63;;
29908;SDS011;36247;51.952;6.146;2024-01-07T01:07:30;72.40;;;34.92;;
29908;SDS011;36247;51.952;6.146;2024-01-07T01:09:59;72.45;;;33.03;;
29908;SDS011;36247;51.952;6.146;2024-01-07T01:12:24;66.30;;;32.22;;
29908;SDS011;36247;51.952;6.146;2024-01-07T01:14:50;67.22;;;33.15;;
29908;SDS011;36247;51.952;6.146;2024-01-07T01:17:15;63.42;;;30.77;;
29908;SDS011;36247;51.952;6.146;2024-01-07T01:19:41;69.40;;;33.95;;
29908;SDS011;36247;51.952;6.146;2024-01-07T01:22:06;66.68;;;30.58;;
29908;SDS011;36247;51.952;6.146;2024-01-07T01:24:35;62.78;;;32.33;;
29908;SDS011;36247;51.952;6.146;2024-01-07T01:27:01;54.50;;;29.83;;
29908;SDS011;36247;51.952;6.146;2024-01-07T01:29:31;60.83;;;30.80;;
29908;SDS011;36247;51.952;6.146;2024-01-07T01:31:58;59.65;;;30.70;;
29908;SDS011;36247;51.952;6.146;2024-01-07T01:34:25;59.67;;;29.95;;
29908;SDS011;36247;51.952;6.146;2024-01-07T01:36:50;58.33;;;27.67;;
29908;SDS011;36247;51.952;6.146;2024-01-07T01:39:15;56.83;;;28.20;;
29908;SDS011;36247;51.952;6.146;2024-01-07T01:41:41;59.05;;;29.45;;
29908;SDS011;36247;51.952;6.146;2024-01-07T01:44:06;53.80;;;28.38;;
29908;SDS011;36247;51.952;6.146;2024-01-07T01:46:33;52.92;;;26.15;;
29908;SDS011;36247;51.952;6.146;2024-01-07T01:48:59;55.53;;;26.77;;
29908;SDS011;36247;51.952;6.146;2024-01-07T01:51:30;48.85;;;26.10;;
29908;SDS011;36247;51.952;6.146;2024-01-07T01:53:58;47.20;;;24.90;;
29908;SDS011;36247;51.952;6.146;2024-01-07T01:56:25;57.72;;;27.13;;
29908;SDS011;36247;51.952;6.146;2024-01-07T01:58:52;51.25;;;24.83;;
29908;SDS011;36247;51.952;6.146;2024-01-07T02:01:18;43.60;;;22.23;;
29908;SDS011;36247;51.952;6.146;2024-01-07T02:03:44;44.65;;;24.05;;
29908;SDS011;36247;51.952;6.146;2024-01-07T02:06:10;47.00;;;23.48;;
29908;SDS011;36247;51.952;6.146;2024-01-07T02:08:37;44.97;;;24.25;;
29908;SDS011;36247;51.952;6.146;2024-01-07T02:11:20;46.33;;;23.25;;
29908;SDS011;36247;51.952;6.146;2024-01-07T02:13:47;48.47;;;24.85;;
29908;SDS011;36247;51.952;6.146;2024-01-07T02:16:13;45.85;;;22.30;;
29908;SDS011;36247;51.952;6.146;2024-01-07T02:18:40;52.00;;;24.95;;
29908;SDS011;36247;51.952;6.146;2024-01-07T02:21:07;47.35;;;23.85;;
29908;SDS011;36247;51.952;6.146;2024-01-07T02:23:34;49.85;;;26.02;;
29908;SDS011;36247;51.952;6.146;2024-01-07T02:26:00;51.50;;;25.58;;
29908;SDS011;36247;51.952;6.146;2024-01-07T02:28:26;51.58;;;26.40;;
29908;SDS011;36247;51.952;6.146;2024-01-07T02:30:51;49.40;;;25.60;;
29908;SDS011;36247;51.952;6.146;2024-01-07T02:33:17;47.10;;;26.15;;
29908;SDS011;36247;51.952;6.146;2024-01-07T02:35:42;49.75;;;25.77;;
29908;SDS011;36247;51.952;6.146;2024-01-07T02:38:08;45.95;;;24.48;;
29908;SDS011;36247;51.952;6.146;2024-01-07T02:40:33;46.60;;;22.98;;
29908;SDS011;36247;51.952;6.146;2024-01-07T02:42:59;45.47;;;22.55;;
29908;SDS011;36247;51.952;6.146;2024-01-07T02:45:24;40.53;;;23.17;;
29908;SDS011;36247;51.952;6.146;2024-01-07T02:47:50;44.92;;;23.30;;
29908;SDS011;36247;51.952;6.146;2024-01-07T02:50:15;45.10;;;23.00;;
29908;SDS011;36247;51.952;6.146;2024-01-07T02:52:42;39.03;;;21.23;;
29908;SDS011;36247;51.952;6.146;2024-01-07T02:55:07;39.80;;;22.75;;
29908;SDS011;36247;51.952;6.146;2024-01-07T02:57:33;38.08;;;22.38;;
29908;SDS011;36247;51.952;6.146;2024-01-07T02:59:59;40.13;;;21.80;;
29908;SDS011;36247;51.952;6.146;2024-01-07T03:02:24;32.42;;;20.80;;
29908;SDS011;36247;51.952;6.146;2024-01-07T03:04:50;36.28;;;19.83;;
29908;SDS011;36247;51.952;6.146;2024-01-07T03:07:15;36.08;;;20.27;;
29908;SDS011;36247;51.952;6.146;2024-01-07T03:09:41;36.90;;;20.90;;
29908;SDS011;36247;51.952;6.146;2024-01-07T03:12:06;35.33;;;19.55;;
29908;SDS011;36247;51.952;6.146;2024-01-07T03:14:33;33.72;;;20.85;;
29908;SDS011;36247;51.952;6.146;2024-01-07T03:16:58;30.88;;;18.85;;
29908;SDS011;36247;51.952;6.146;2024-01-07T03:19:24;35.53;;;20.48;;
29908;SDS011;36247;51.952;6.146;2024-01-07T03:21:49;40.67;;;21.92;;
29908;SDS011;36247;51.952;6.146;2024-01-07T03:24:15;36.20;;;21.70;;
29908;SDS011;36247;51.952;6.146;2024-01-07T03:26:41;34.55;;;19.67;;
29908;SDS011;36247;51.952;6.146;2024-01-07T03:29:06;37.97;;;20.50;;
29908;SDS011;36247;51.952;6.146;2024-01-07T03:31:34;36.83;;;22.80;;
29908;SDS011;36247;51.952;6.146;2024-01-07T03:34:00;36.53;;;21.73;;
29908;SDS011;36247;51.952;6.146;2024-01-07T03:36:25;34.20;;;22.27;;
29908;SDS011;36247;51.952;6.146;2024-01-07T03:38:51;40.33;;;21.23;;
29908;SDS011;36247;51.952;6.146;2024-01-07T03:41:18;37.00;;;21.60;;
29908;SDS011;36247;51.952;6.146;2024-01-07T03:43:49;40.80;;;23.55;;
29908;SDS011;36247;51.952;6.146;2024-01-07T03:46:15;40.28;;;23.35;;
29908;SDS011;36247;51.952;6.146;2024-01-07T03:48:43;41.97;;;22.63;;
29908;SDS011;36247;51.952;6.146;2024-01-07T03:51:09;40.90;;;22.88;;
29908;SDS011;36247;51.952;6.146;2024-01-07T03:53:35;38.78;;;23.90;;
29908;SDS011;36247;51.952;6.146;2024-01-07T03:56:00;34.50;;;21.63;;
29908;SDS011;36247;51.952;6.146;2024-01-07T03:58:31;35.60;;;22.23;;
29908;SDS011;36247;51.952;6.146;2024-01-07T04:01:00;33.88;;;20.40;;
29908;SDS011;36247;51.952;6.146;2024-01-07T04:03:30;32.35;;;20.60;;
29908;SDS011;36247;51.952;6.146;2024-01-07T04:05:58;36.45;;;22.13;;
29908;SDS011;36247;51.952;6.146;2024-01-07T04:08:23;35.10;;;21.85;;
29908;SDS011;36247;51.952;6.146;2024-01-07T04:10:49;38.15;;;22.48;;
29908;SDS011;36247;51.952;6.146;2024-01-07T04:13:14;36.22;;;21.48;;
29908;SDS011;36247;51.952;6.146;2024-01-07T04:15:40;35.00;;;21.30;;
29908;SDS011;36247;51.952;6.146;2024-01-07T04:18:05;33.20;;;20.33;;
29908;SDS011;36247;51.952;6.146;2024-01-07T04:20:33;36.80;;;22.30;;
29908;SDS011;36247;51.952;6.146;2024-01-07T04:22:58;34.60;;;21.05;;
29908;SDS011;36247;51.952;6.146;2024-01-07T04:25:24;29.73;;;20.15;;
29908;SDS011;36247;51.952;6.146;2024-01-07T04:27:50;35.70;;;21.98;;
29908;SDS011;36247;51.952;6.146;2024-01-07T04:30:15;32.67;;;20.08;;
29908;SDS011;36247;51.952;6.146;2024-01-07T04:32:41;32.20;;;20.85;;
29908;SDS011;36247;51.952;6.146;2024-01-07T04:35:06;31.08;;;19.13;;
29908;SDS011;36247;51.952;6.146;2024-01-07T04:37:33;31.20;;;19.33;;
29908;SDS011;36247;51.952;6.146;2024-01-07T04:40:01;35.08;;;20.95;;
29908;SDS011;36247;51.952;6.146;2024-01-07T04:42:29;31.60;;;19.92;;
29908;SDS011;36247;51.952;6.146;2024-01-07T04:44:56;30.58;;;18.83;;
29908;SDS011;36247;51.952;6.146;2024-01-07T04:47:26;32.75;;;18.00;;
29908;SDS011;36247;51.952;6.146;2024-01-07T04:49:53;31.95;;;17.90;;
29908;SDS011;36247;51.952;6.146;2024-01-07T04:52:18;29.35;;;18.98;;
29908;SDS011;36247;51.952;6.146;2024-01-07T04:54:44;27.63;;;17.10;;
29908;SDS011;36247;51.952;6.146;2024-01-07T04:57:10;27.17;;;17.67;;
29908;SDS011;36247;51.952;6.146;2024-01-07T04:59:36;30.27;;;18.60;;
29908;SDS011;36247;51.952;6.146;2024-01-07T05:02:04;27.92;;;17.65;;
29908;SDS011;36247;51.952;6.146;2024-01-07T05:04:31;29.92;;;18.73;;
29908;SDS011;36247;51.952;6.146;2024-01-07T05:06:59;23.83;;;16.35;;
29908;SDS011;36247;51.952;6.146;2024-01-07T05:09:25;27.55;;;16.88;;
29908;SDS011;36247;51.952;6.146;2024-01-07T05:11:50;25.95;;;16.05;;
29908;SDS011;36247;51.952;6.146;2024-01-07T05:14:16;30.25;;;17.30;;
29908;SDS011;36247;51.952;6.146;2024-01-07T05:16:42;27.02;;;17.55;;
29908;SDS011;36247;51.952;6.146;2024-01-07T05:19:08;29.58;;;18.27;;
29908;SDS011;36247;51.952;6.146;2024-01-07T05:21:34;29.33;;;18.20;;
29908;SDS011;36247;51.952;6.146;2024-01-07T05:23:59;27.42;;;16.65;;
29908;SDS011;36247;51.952;6.146;2024-01-07T05:26:25;25.75;;;17.30;;
29908;SDS011;36247;51.952;6.146;2024-01-07T05:28:50;26.20;;;17.30;;
29908;SDS011;36247;51.952;6.146;2024-01-07T05:31:16;31.13;;;19.42;;
29908;SDS011;36247;51.952;6.146;2024-01-07T05:33:45;35.28;;;18.70;;
29908;SDS011;36247;51.952;6.146;2024-01-07T05:36:14;29.05;;;17.65;;
29908;SDS011;36247;51.952;6.146;2024-01-07T05:38:43;26.42;;;17.45;;
29908;SDS011;36247;51.952;6.146;2024-01-07T05:41:08;26.65;;;17.08;;
29908;SDS011;36247;51.952;6.146;2024-01-07T05:43:35;31.70;;;19.02;;
29908;SDS011;36247;51.952;6.146;2024-01-07T05:46:01;27.75;;;18.02;;
29908;SDS011;36247;51.952;6.146;2024-01-07T05:48:26;27.85;;;17.02;;
29908;SDS011;36247;51.952;6.146;2024-01-07T05:50:52;27.73;;;16.88;;
29908;SDS011;36247;51.952;6.146;2024-01-07T05:53:17;29.42;;;17.05;;
29908;SDS011;36247;51.952;6.146;2024-01-07T05:55:43;28.00;;;17.25;;
29908;SDS011;36247;51.952;6.146;2024-01-07T05:58:08;27.80;;;16.88;;
29908;SDS011;36247;51.952;6.146;2024-01-07T06:00:35;25.55;;;16.80;;
29908;SDS011;36247;51.952;6.146;2024-01-07T06:03:01;28.38;;;16.63;;
29908;SDS011;36247;51.952;6.146;2024-01-07T06:05:31;23.98;;;14.50;;
29908;SDS011;36247;51.952;6.146;2024-01-07T06:07:58;28.40;;;16.77;;
29908;SDS011;36247;51.952;6.146;2024-01-07T06:10:24;27.13;;;15.98;;
29908;SDS011;36247;51.952;6.146;2024-01-07T06:12:49;30.25;;;16.50;;
29908;SDS011;36247;51.952;6.146;2024-01-07T06:15:15;27.23;;;15.68;;
29908;SDS011;36247;51.952;6.146;2024-01-07T06:17:40;22.30;;;15.13;;
29908;SDS011;36247;51.952;6.146;2024-01-07T06:20:06;28.10;;;16.08;;
29908;SDS011;36247;51.952;6.146;2024-01-07T06:22:33;27.63;;;17.42;;
29908;SDS011;36247;51.952;6.146;2024-01-07T06:24:59;26.95;;;15.13;;
29908;SDS011;36247;51.952;6.146;2024-01-07T06:27:25;30.27;;;17.13;;
29908;SDS011;36247;51.952;6.146;2024-01-07T06:29:50;30.30;;;18.58;;
29908;SDS011;36247;51.952;6.146;2024-01-07T06:32:15;27.33;;;17.17;;
29908;SDS011;36247;51.952;6.146;2024-01-07T06:34:41;25.20;;;15.32;;
29908;SDS011;36247;51.952;6.146;2024-01-07T06:37:08;28.27;;;16.65;;
29908;SDS011;36247;51.952;6.146;2024-01-07T06:39:35;29.20;;;16.55;;
29908;SDS011;36247;51.952;6.146;2024-01-07T06:42:09;23.45;;;14.70;;
29908;SDS011;36247;51.952;6.146;2024-01-07T06:44:35;27.92;;;15.98;;
29908;SDS011;36247;51.952;6.146;2024-01-07T06:47:01;25.25;;;16.30;;
29908;SDS011;36247;51.952;6.146;2024-01-07T06:49:33;27.65;;;15.05;;
29908;SDS011;36247;51.952;6.146;2024-01-07T06:51:59;25.52;;;15.27;;
29908;SDS011;36247;51.952;6.146;2024-01-07T06:54:25;23.15;;;14.88;;
29908;SDS011;36247;51.952;6.146;2024-01-07T06:56:51;29.20;;;16.23;;
29908;SDS011;36247;51.952;6.146;2024-01-07T06:59:16;27.23;;;15.20;;
29908;SDS011;36247;51.952;6.146;2024-01-07T07:01:42;26.75;;;14.75;;
29908;SDS011;36247;51.952;6.146;2024-01-07T07:04:07;21.42;;;14.50;;
29908;SDS011;36247;51.952;6.146;2024-01-07T07:06:33;22.02;;;15.13;;
29908;SDS011;36247;51.952;6.146;2024-01-07T07:09:00;24.55;;;14.52;;
29908;SDS011;36247;51.952;6.146;2024-01-07T07:11:26;22.27;;;14.10;;
29908;SDS011;36247;51.952;6.146;2024-01-07T07:13:51;23.80;;;13.27;;
29908;SDS011;36247;51.952;6.146;2024-01-07T07:16:17;25.20;;;13.93;;
29908;SDS011;36247;51.952;6.146;2024-01-07T07:18:42;26.27;;;14.57;;
29908;SDS011;36247;51.952;6.146;2024-01-07T07:21:08;19.00;;;13.80;;
29908;SDS011;36247;51.952;6.146;2024-01-07T07:23:33;20.00;;;14.15;;
29908;SDS011;36247;51.952;6.146;2024-01-07T07:25:59;18.17;;;13.63;;
29908;SDS011;36247;51.952;6.146;2024-01-07T07:28:24;21.80;;;13.82;;
29908;SDS011;36247;51.952;6.146;2024-01-07T07:30:50;22.08;;;14.63;;
29908;SDS011;36247;51.952;6.146;2024-01-07T07:33:15;24.92;;;14.85;;
29908;SDS011;36247;51.952;6.146;2024-01-07T07:35:40;21.38;;;14.32;;
29908;SDS011;36247;51.952;6.146;2024-01-07T07:38:07;22.23;;;15.73;;
29908;SDS011;36247;51.952;6.146;2024-01-07T07:40:33;24.52;;;15.35;;
29908;SDS011;36247;51.952;6.146;2024-01-07T07:42:59;23.23;;;15.15;;
29908;SDS011;36247;51.952;6.146;2024-01-07T07:45:24;19.15;;;13.57;;
29908;SDS011;36247;51.952;6.146;2024-01-07T07:47:50;22.10;;;15.70;;
29908;SDS011;36247;51.952;6.146;2024-01-07T07:50:15;18.90;;;13.55;;
29908;SDS011;36247;51.952;6.146;2024-01-07T07:52:41;21.55;;;14.02;;
29908;SDS011;36247;51.952;6.146;2024-01-07T07:55:09;19.50;;;13.55;;
29908;SDS011;36247;51.952;6.146;2024-01-07T07:57:35;19.77;;;14.18;;
29908;SDS011;36247;51.952;6.146;2024-01-07T08:00:02;21.02;;;14.30;;
29908;SDS011;36247;51.952;6.146;2024-01-07T08:02:33;19.00;;;14.00;;
29908;SDS011;36247;51.952;6.146;2024-01-07T08:04:58;18.70;;;13.35;;
29908;SDS011;36247;51.952;6.146;2024-01-07T08:07:24;24.83;;;14.65;;
29908;SDS011;36247;51.952;6.146;2024-01-07T08:09:50;21.02;;;13.65;;
29908;SDS011;36247;51.952;6.146;2024-01-07T08:12:16;18.40;;;13.15;;
29908;SDS011;36247;51.952;6.146;2024-01-07T08:14:42;15.23;;;13.00;;
29908;SDS011;36247;51.952;6.146;2024-01-07T08:17:07;18.92;;;13.85;;
29908;SDS011;36247;51.952;6.146;2024-01-07T08:19:35;19.05;;;13.88;;
29908;SDS011;36247;51.952;6.146;2024-01-07T08:22:01;20.15;;;13.88;;
29908;SDS011;36247;51.952;6.146;2024-01-07T08:24:33;22.38;;;14.07;;
29908;SDS011;36247;51.952;6.146;2024-01-07T08:27:01;18.88;;;14.10;;
29908;SDS011;36247;51.952;6.146;2024-01-07T08:29:33;22.77;;;14.55;;
29908;SDS011;36247;51.952;6.146;2024-01-07T08:32:00;19.45;;;13.73;;
29908;SDS011;36247;51.952;6.146;2024-01-07T08:34:33;16.60;;;12.98;;
29908;SDS011;36247;51.952;6.146;2024-01-07T08:37:02;20.92;;;13.80;;
29908;SDS011;36247;51.952;6.146;2024-01-07T08:39:35;18.13;;;13.68;;
29908;SDS011;36247;51.952;6.146;2024-01-07T08:42:03;16.25;;;13.55;;
29908;SDS011;36247;51.952;6.146;2024-01-07T08:44:34;17.33;;;13.40;;
29908;SDS011;36247;51.952;6.146;2024-01-07T08:47:01;18.95;;;13.60;;
29908;SDS011;36247;51.952;6.146;2024-01-07T08:49:34;21.52;;;13.77;;
29908;SDS011;36247;51.952;6.146;2024-01-07T08:52:01;20.77;;;13.48;;
29908;SDS011;36247;51.952;6.146;2024-01-07T08:54:34;20.90;;;13.27;;
29908;SDS011;36247;51.952;6.146;2024-01-07T08:57:00;19.60;;;13.65;;
29908;SDS011;36247;51.952;6.146;2024-01-07T08:59:26;17.58;;;13.10;;
29908;SDS011;36247;51.952;6.146;2024-01-07T09:01:51;19.15;;;13.45;;
29908;SDS011;36247;51.952;6.146;2024-01-07T09:04:17;20.52;;;13.63;;
29908;SDS011;36247;51.952;6.146;2024-01-07T09:06:46;21.30;;;12.65;;
29908;SDS011;36247;51.952;6.146;2024-01-07T09:09:14;19.52;;;13.93;;
29908;SDS011;36247;51.952;6.146;2024-01-07T09:11:39;21.00;;;13.23;;
29908;SDS011;36247;51.952;6.146;2024-01-07T09:14:06;24.58;;;13.43;;
29908;SDS011;36247;51.952;6.146;2024-01-07T09:16:35;18.92;;;13.18;;
29908;SDS011;36247;51.952;6.146;2024-01-07T09:19:19;20.55;;;13.43;;
29908;SDS011;36247;51.952;6.146;2024-01-07T09:21:44;16.52;;;11.57;;
29908;SDS011;36247;51.952;6.146;2024-01-07T09:24:10;18.10;;;12.00;;
29908;SDS011;36247;51.952;6.146;2024-01-07T09:26:36;20.38;;;12.65;;
29908;SDS011;36247;51.952;6.146;2024-01-07T09:29:04;17.08;;;11.23;;
29908;SDS011;36247;51.952;6.146;2024-01-07T09:31:34;19.13;;;12.23;;
29908;SDS011;36247;51.952;6.146;2024-01-07T09:34:01;17.60;;;11.68;;
29908;SDS011;36247;51.952;6.146;2024-01-07T09:36:33;19.17;;;12.30;;
29908;SDS011;36247;51.952;6.146;2024-01-07T09:39:01;16.50;;;11.70;;
29908;SDS011;36247;51.952;6.146;2024-01-07T09:41:35;17.25;;;12.00;;
29908;SDS011;36247;51.952;6.146;2024-01-07T09:44:03;15.93;;;11.02;;
29908;SDS011;36247;51.952;6.146;2024-01-07T09:46:34;23.60;;;11.85;;
29908;SDS011;36247;51.952;6.146;2024-01-07T09:49:05;17.08;;;11.25;;
29908;SDS011;36247;51.952;6.146;2024-01-07T09:51:35;18.55;;;12.13;;
29908;SDS011;36247;51.952;6.146;2024-01-07T09:54:04;15.88;;;10.27;;
29908;SDS011;36247;51.952;6.146;2024-01-07T09:56:38;17.50;;;11.98;;
29908;SDS011;36247;51.952;6.146;2024-01-07T09:59:07;18.33;;;11.07;;
29908;SDS011;36247;51.952;6.146;2024-01-07T10:01:34;17.88;;;10.30;;
29908;SDS011;36247;51.952;6.146;2024-01-07T10:04:01;14.77;;;10.23;;
29908;SDS011;36247;51.952;6.146;2024-01-07T10:06:35;19.58;;;10.82;;
29908;SDS011;36247;51.952;6.146;2024-01-07T10:09:06;18.10;;;10.35;;
29908;SDS011;36247;51.952;6.146;2024-01-07T10:11:34;19.08;;;10.45;;
29908;SDS011;36247;51.952;6.146;2024-01-07T10:14:05;15.73;;;10.85;;
29908;SDS011;36247;51.952;6.146;2024-01-07T10:16:34;13.93;;;10.20;;
29908;SDS011;36247;51.952;6.146;2024-01-07T10:19:05;13.85;;;9.48;;
29908;SDS011;36247;51.952;6.146;2024-01-07T10:21:34;13.88;;;9.65;;
29908;SDS011;36247;51.952;6.146;2024-01-07T10:24:08;13.35;;;9.95;;
29908;SDS011;36247;51.952;6.146;2024-01-07T10:26:37;10.50;;;8.05;;
29908;SDS011;36247;51.952;6.146;2024-01-07T10:29:05;10.52;;;8.68;;
29908;SDS011;36247;51.952;6.146;2024-01-07T10:31:37;12.38;;;9.38;;
29908;SDS011;36247;51.952;6.146;2024-01-07T10:34:14;11.73;;;8.77;;
29908;SDS011;36247;51.952;6.146;2024-01-07T10:36:40;10.93;;;7.88;;
29908;SDS011;36247;51.952;6.146;2024-01-07T10:39:07;10.80;;;7.65;;
29908;SDS011;36247;51.952;6.146;2024-01-07T10:41:34;9.50;;;7.53;;
29908;SDS011;36247;51.952;6.146;2024-01-07T10:44:09;10.63;;;7.25;;
29908;SDS011;36247;51.952;6.146;2024-01-07T10:46:35;9.52;;;7.30;;
29908;SDS011;36247;51.952;6.146;2024-01-07T10:49:13;11.15;;;6.72;;
29908;SDS011;36247;51.952;6.146;2024-01-07T10:51:46;10.18;;;6.90;;
29908;SDS011;36247;51.952;6.146;2024-01-07T10:54:35;14.60;;;7.00;;
29908;SDS011;36247;51.952;6.146;2024-01-07T10:59:49;7.32;;;6.35;;
29908;SDS011;36247;51.952;6.146;2024-01-07T11:02:15;8.55;;;6.10;;
29908;SDS011;36247;51.952;6.146;2024-01-07T11:07:33;7.18;;;6.00;;
29908;SDS011;36247;51.952;6.146;2024-01-07T11:10:10;7.97;;;6.50;;
29908;SDS011;36247;51.952;6.146;2024-01-07T11:12:40;8.13;;;6.18;;
29908;SDS011;36247;51.952;6.146;2024-01-07T11:15:07;8.77;;;6.20;;
29908;SDS011;36247;51.952;6.146;2024-01-07T11:20:04;7.38;;;5.28;;
29908;SDS011;36247;51.952;6.146;2024-01-07T11:22:37;6.05;;;4.78;;
29908;SDS011;36247;51.952;6.146;2024-01-07T11:25:30;5.68;;;4.63;;
29908;SDS011;36247;51.952;6.146;2024-01-07T11:28:01;7.32;;;4.80;;
29908;SDS011;36247;51.952;6.146;2024-01-07T11:30:37;6.93;;;4.68;;
29908;SDS011;36247;51.952;6.146;2024-01-07T11:33:06;5.18;;;4.15;;
29908;SDS011;36247;51.952;6.146;2024-01-07T11:38:36;8.95;;;3.88;;
29908;SDS011;36247;51.952;6.146;2024-01-07T11:41:06;7.65;;;3.85;;
29908;SDS011;36247;51.952;6.146;2024-01-07T11:43:34;6.22;;;3.97;;
29908;SDS011;36247;51.952;6.146;2024-01-07T11:46:01;5.90;;;4.03;;
29908;SDS011;36247;51.952;6.146;2024-01-07T11:48:30;6.55;;;3.90;;
29908;SDS011;36247;51.952;6.146;2024-01-07T11:50:56;7.13;;;3.90;;
29908;SDS011;36247;51.952;6.146;2024-01-07T11:53:22;5.78;;;3.92;;
29908;SDS011;36247;51.952;6.146;2024-01-07T11:55:48;4.45;;;4.05;;
29908;SDS011;36247;51.952;6.146;2024-01-07T11:58:13;4.97;;;3.63;;
29908;SDS011;36247;51.952;6.146;2024-01-07T12:00:39;4.70;;;3.50;;
29908;SDS011;36247;51.952;6.146;2024-01-07T12:03:05;3.83;;;3.42;;
29908;SDS011;36247;51.952;6.146;2024-01-07T12:05:31;6.10;;;3.25;;
29908;SDS011;36247;51.952;6.146;2024-01-07T12:08:00;3.60;;;3.20;;
29908;SDS011;36247;51.952;6.146;2024-01-07T12:10:26;7.78;;;3.72;;
29908;SDS011;36247;51.952;6.146;2024-01-07T12:12:51;3.92;;;3.03;;
29908;SDS011;36247;51.952;6.146;2024-01-07T12:15:17;4.72;;;3.38;;
29908;SDS011;36247;51.952;6.146;2024-01-07T12:17:48;4.88;;;3.10;;
29908;SDS011;36247;51.952;6.146;2024-01-07T12:20:21;4.30;;;3.17;;
29908;SDS011;36247;51.952;6.146;2024-01-07T12:22:46;5.93;;;3.35;;
29908;SDS011;36247;51.952;6.146;2024-01-07T12:25:13;4.97;;;3.38;;
29908;SDS011;36247;51.952;6.146;2024-01-07T12:27:40;3.65;;;2.92;;
29908;SDS011;36247;51.952;6.146;2024-01-07T12:30:06;4.55;;;3.30;;
29908;SDS011;36247;51.952;6.146;2024-01-07T12:32:34;3.70;;;3.10;;
29908;SDS011;36247;51.952;6.146;2024-01-07T12:35:01;4.65;;;3.30;;
29908;SDS011;36247;51.952;6.146;2024-01-07T12:37:34;5.83;;;3.77;;
29908;SDS011;36247;51.952;6.146;2024-01-07T12:40:01;3.17;;;2.88;;
29908;SDS011;36247;51.952;6.146;2024-01-07T12:42:31;5.05;;;2.95;;
29908;SDS011;36247;51.952;6.146;2024-01-07T12:44:59;3.95;;;3.20;;
29908;SDS011;36247;51.952;6.146;2024-01-07T12:47:25;4.32;;;3.20;;
29908;SDS011;36247;51.952;6.146;2024-01-07T12:49:51;5.05;;;3.05;;
29908;SDS011;36247;51.952;6.146;2024-01-07T12:52:19;4.45;;;3.17;;
29908;SDS011;36247;51.952;6.146;2024-01-07T12:54:45;4.10;;;3.28;;
29908;SDS011;36247;51.952;6.146;2024-01-07T12:57:13;6.18;;;3.67;;
29908;SDS011;36247;51.952;6.146;2024-01-07T12:59:38;4.47;;;2.97;;
29908;SDS011;36247;51.952;6.146;2024-01-07T13:02:04;5.57;;;3.17;;
29908;SDS011;36247;51.952;6.146;2024-01-07T13:04:31;4.30;;;3.30;;
29908;SDS011;36247;51.952;6.146;2024-01-07T13:06:58;4.82;;;3.42;;
29908;SDS011;36247;51.952;6.146;2024-01-07T13:09:24;5.68;;;3.38;;
29908;SDS011;36247;51.952;6.146;2024-01-07T13:11:49;4.97;;;3.80;;
29908;SDS011;36247;51.952;6.146;2024-01-07T13:14:15;4.20;;;3.50;;
29908;SDS011;36247;51.952;6.146;2024-01-07T13:16:40;4.25;;;3.03;;
29908;SDS011;36247;51.952;6.146;2024-01-07T13:19:06;5.65;;;3.35;;
29908;SDS011;36247;51.952;6.146;2024-01-07T13:21:33;4.93;;;3.22;;
29908;SDS011;36247;51.952;6.146;2024-01-07T13:23:59;6.50;;;2.95;;
29908;SDS011;36247;51.952;6.146;2024-01-07T13:26:26;6.30;;;3.33;;
29908;SDS011;36247;51.952;6.146;2024-01-07T13:28:51;5.28;;;3.00;;
29908;SDS011;36247;51.952;6.146;2024-01-07T13:31:17;4.85;;;3.30;;
29908;SDS011;36247;51.952;6.146;2024-01-07T13:33:42;6.80;;;3.17;;
29908;SDS011;36247;51.952;6.146;2024-01-07T13:36:08;7.35;;;3.22;;
29908;SDS011;36247;51.952;6.146;2024-01-07T13:38:36;5.38;;;3.28;;
29908;SDS011;36247;51.952;6.146;2024-01-07T13:41:07;4.43;;;3.15;;
29908;SDS011;36247;51.952;6.146;2024-01-07T13:43:34;4.60;;;3.40;;
29908;SDS011;36247;51.952;6.146;2024-01-07T13:45:59;6.25;;;3.10;;
29908;SDS011;36247;51.952;6.146;2024-01-07T13:48:33;4.55;;;2.75;;
29908;SDS011;36247;51.952;6.146;2024-01-07T13:50:59;5.32;;;3.25;;
29908;SDS011;36247;51.952;6.146;2024-01-07T13:53:25;3.90;;;3.10;;
29908;SDS011;36247;51.952;6.146;2024-01-07T13:55:51;4.15;;;3.60;;
29908;SDS011;36247;51.952;6.146;2024-01-07T13:58:17;5.45;;;3.13;;
29908;SDS011;36247;51.952;6.146;2024-01-07T14:00:42;3.90;;;2.88;;
29908;SDS011;36247;51.952;6.146;2024-01-07T14:03:08;4.97;;;2.92;;
29908;SDS011;36247;51.952;6.146;2024-01-07T14:05:33;4.35;;;2.95;;
29908;SDS011;36247;51.952;6.146;2024-01-07T14:07:59;7.30;;;2.85;;
29908;SDS011;36247;51.952;6.146;2024-01-07T14:10:24;6.20;;;3.38;;
29908;SDS011;36247;51.952;6.146;2024-01-07T14:12:50;4.97;;;2.90;;
29908;SDS011;36247;51.952;6.146;2024-01-07T14:15:16;3.38;;;2.63;;
29908;SDS011;36247;51.952;6.146;2024-01-07T14:17:43;4.57;;;2.72;;
29908;SDS011;36247;51.952;6.146;2024-01-07T14:20:09;5.22;;;2.67;;
29908;SDS011;36247;51.952;6.146;2024-01-07T14:22:36;2.95;;;2.50;;
29908;SDS011;36247;51.952;6.146;2024-01-07T14:25:04;2.83;;;2.35;;
29908;SDS011;36247;51.952;6.146;2024-01-07T14:27:34;3.20;;;2.50;;
29908;SDS011;36247;51.952;6.146;2024-01-07T14:29:59;4.10;;;2.67;;
29908;SDS011;36247;51.952;6.146;2024-01-07T14:32:25;4.30;;;2.70;;
29908;SDS011;36247;51.952;6.146;2024-01-07T14:34:50;4.63;;;3.05;;
29908;SDS011;36247;51.952;6.146;2024-01-07T14:37:16;6.95;;;2.85;;
29908;SDS011;36247;51.952;6.146;2024-01-07T14:39:41;4.60;;;3.13;;